Time;durP1;ratioP1;P1;durP2;ratioP2;P2;SDS_P1;SDS_P2;PMS_P1;PMS_P2;Temp;Humidity;BMP_temperature;BMP_pressure;BME280_temperature;BME280_humidity;BME280_pressure;Samples;Min_cycle;Max_cycle;Signal;HPM_P1;HPM_P2
2021/12/02 00:00:12;;;;;;;23.87;10.27;;;;;;;2.38;63.25;99658.97;126287;1098;104150;-82
2021/12/02 00:03:08;;;;;;;22.20;9.23;;;;;;;2.38;62.98;99650.33;126370;1099;104181;-83
2021/12/02 00:05:39;;;;;;;20.93;8.67;;;;;;;2.41;63.60;99647.91;126376;1098;104158;-83
2021/12/02 00:08:11;;;;;;;21.57;9.03;;;;;;;2.40;63.64;99644.44;126302;1099;104252;-82
2021/12/02 00:10:42;;;;;;;19.67;8.23;;;;;;;2.48;63.39;99657.80;126364;1099;104143;-83
2021/12/02 00:13:14;;;;;;;19.60;8.27;;;;;;;2.48;63.28;99655.21;126324;1099;104175;-83
2021/12/02 00:15:50;;;;;;;21.97;9.43;;;;;;;2.49;63.84;99655.30;126385;1099;104166;-84
2021/12/02 00:21:21;;;;;;;21.48;9.00;;;;;;;2.47;63.42;99649.12;125273;1102;106999;-83
2021/12/02 00:24:03;;;;;;;21.13;8.27;;;;;;;2.48;63.09;99648.32;126355;1099;104153;-82
2021/12/02 00:26:37;;;;;;;20.13;8.33;;;;;;;2.48;63.67;99648.32;126326;1098;104184;-82
2021/12/02 00:29:09;;;;;;;21.87;9.00;;;;;;;2.50;63.02;99646.70;126316;1099;104197;-83
2021/12/02 00:31:42;;;;;;;21.33;8.80;;;;;;;2.50;63.15;99645.81;126402;1099;104149;-83
2021/12/02 00:34:14;;;;;;;19.03;8.60;;;;;;;2.50;63.57;99644.11;126304;1099;104144;-82
2021/12/02 00:36:45;;;;;;;19.93;8.43;;;;;;;2.47;63.98;99640.47;126375;1099;104255;-83
2021/12/02 00:39:19;;;;;;;20.57;8.70;;;;;;;2.40;63.55;99638.34;126251;1099;104223;-81
2021/12/02 00:41:51;;;;;;;19.35;8.15;;;;;;;2.34;63.94;99637.21;126339;1099;101680;-82
2021/12/02 00:44:22;;;;;;;18.10;7.83;;;;;;;2.28;63.55;99638.59;126337;1099;105332;-83
2021/12/02 00:46:54;;;;;;;19.67;8.47;;;;;;;2.25;63.60;99628.94;126286;1099;104258;-82
2021/12/02 00:49:25;;;;;;;19.87;8.23;;;;;;;2.25;63.88;99625.47;126293;1099;104181;-82
2021/12/02 00:52:01;;;;;;;18.50;7.67;;;;;;;2.23;63.61;99624.48;126296;1099;110794;-82
2021/12/02 00:54:33;;;;;;;19.40;8.47;;;;;;;2.20;63.69;99612.28;126344;1099;104192;-83
2021/12/02 00:57:06;;;;;;;19.63;8.03;;;;;;;2.18;63.81;99607.81;126368;1099;104229;-82
2021/12/02 00:59:38;;;;;;;21.90;9.03;;;;;;;2.20;63.73;99621.72;126259;1099;104171;-82
2021/12/02 01:02:11;;;;;;;19.90;8.27;;;;;;;2.23;63.82;99608.95;126292;1099;103989;-82
2021/12/02 01:04:43;;;;;;;19.57;9.10;;;;;;;2.24;63.89;99601.27;126259;1099;104277;-82
2021/12/02 01:07:14;;;;;;;20.00;7.90;;;;;;;2.23;63.78;99601.17;126373;1099;104254;-81
2021/12/02 01:09:48;;;;;;;19.23;8.07;;;;;;;2.23;63.80;99593.41;126346;1099;104666;-84
2021/12/02 01:12:19;;;;;;;22.73;8.13;;;;;;;2.20;64.26;99572.53;126323;1098;104143;-82
2021/12/02 01:14:51;;;;;;;20.90;8.07;;;;;;;2.22;63.85;99560.59;126334;1099;104293;-82
2021/12/02 01:17:22;;;;;;;19.83;8.10;;;;;;;2.22;63.78;99570.95;126250;1099;104181;-82
2021/12/02 01:19:53;;;;;;;19.43;8.20;;;;;;;2.20;64.15;99573.45;126381;1098;104150;-82
2021/12/02 01:22:25;;;;;;;18.97;7.93;;;;;;;2.18;63.83;99569.87;126263;1099;118604;-82
2021/12/02 01:24:57;;;;;;;18.30;7.27;;;;;;;2.16;63.99;99577.55;125269;1102;104771;-82
2021/12/02 01:27:29;;;;;;;18.20;7.43;;;;;;;2.14;63.90;99579.17;125256;1102;104195;-82
2021/12/02 01:30:01;;;;;;;16.83;7.67;;;;;;;2.14;63.89;99578.30;125286;1102;104386;-84
2021/12/02 01:32:38;;;;;;;14.90;7.07;;;;;;;2.15;63.68;99582.64;125276;1099;104139;-83
2021/12/02 01:35:10;;;;;;;19.57;8.17;;;;;;;2.14;64.13;99584.34;125380;1099;104219;-83
2021/12/02 01:37:43;;;;;;;20.77;8.37;;;;;;;2.15;63.89;99580.05;125257;1102;104360;-83
2021/12/02 01:40:14;;;;;;;20.63;8.37;;;;;;;2.15;64.07;99577.47;125264;1102;105289;-83
2021/12/02 01:42:51;;;;;;;22.67;8.83;;;;;;;2.13;63.76;99574.80;125236;1102;104227;-83
2021/12/02 01:45:26;;;;;;;19.97;8.23;;;;;;;2.13;64.21;99574.80;125255;1102;102936;-83
2021/12/02 01:47:59;;;;;;;19.70;8.67;;;;;;;2.12;64.15;99570.45;125255;1102;104763;-83
2021/12/02 01:50:33;;;;;;;19.00;7.40;;;;;;;2.08;64.12;99565.90;125238;1102;104191;-83
2021/12/02 01:53:05;;;;;;;19.47;8.10;;;;;;;2.04;63.97;99576.00;125278;1102;104163;-82
2021/12/02 01:55:43;;;;;;;19.90;8.40;;;;;;;2.03;63.35;99572.53;125270;1102;104334;-82
2021/12/02 01:58:18;;;;;;;20.53;8.53;;;;;;;2.03;63.90;99574.23;125293;1102;104159;-83
2021/12/02 02:00:52;;;;;;;21.23;8.73;;;;;;;2.02;63.63;99578.50;125281;1102;104294;-83
2021/12/02 02:03:23;;;;;;;20.37;8.73;;;;;;;2.03;64.03;99585.47;125216;1099;109292;-83
2021/12/02 02:06:15;;;;;;;18.63;8.13;;;;;;;2.02;63.95;99585.39;125295;1099;104370;-83
2021/12/02 02:08:58;;;;;;;22.27;8.90;;;;;;;1.98;64.09;99581.75;125503;1099;104147;-83
2021/12/02 02:11:31;;;;;;;16.93;7.53;;;;;;;2.01;64.08;99588.77;126307;1099;104146;-83
2021/12/02 02:14:05;;;;;;;19.40;8.57;;;;;;;2.01;63.97;99584.51;126367;1099;104287;-83
2021/12/02 02:16:42;;;;;;;21.27;8.67;;;;;;;2.00;64.48;99580.13;126268;1099;104323;-81
2021/12/02 02:19:13;;;;;;;18.97;8.67;;;;;;;1.98;64.05;99585.22;126313;1099;104152;-83
2021/12/02 02:21:44;;;;;;;17.97;8.27;;;;;;;1.97;64.50;99572.20;126295;1099;104140;-83
2021/12/02 02:24:18;;;;;;;20.87;8.63;;;;;;;1.97;64.13;99570.48;126317;1098;104226;-80
2021/12/02 02:26:49;;;;;;;20.43;8.97;;;;;;;1.98;64.13;99566.22;126358;1099;104152;-82
2021/12/02 02:29:20;;;;;;;19.20;8.77;;;;;;;2.00;64.42;99561.13;126273;1099;104283;-82
2021/12/02 02:31:51;;;;;;;19.80;8.83;;;;;;;2.00;64.37;99558.55;126299;1099;104216;-83
2021/12/02 02:34:26;;;;;;;18.73;8.50;;;;;;;2.04;64.45;99548.45;126321;1098;104184;-83
2021/12/02 02:36:57;;;;;;;;;;;;;;;2.09;64.26;99538.34;126339;1098;104149;-83
2021/12/02 02:39:30;;;;;;;18.47;8.40;;;;;;;2.12;64.24;99539.39;126378;1099;104236;-83
2021/12/02 02:42:05;;;;;;;19.43;8.37;;;;;;;2.20;64.15;99541.48;126269;1099;104287;-82
2021/12/02 02:44:38;;;;;;;20.20;8.13;;;;;;;2.27;63.92;99528.95;126350;1099;104137;-83
2021/12/02 02:47:09;;;;;;;20.57;9.73;;;;;;;2.34;64.59;99520.70;126343;1099;104152;-83
2021/12/02 02:49:40;;;;;;;20.40;8.93;;;;;;;2.39;64.49;99522.66;126338;1099;104288;-84
2021/12/02 02:52:12;;;;;;;21.13;9.13;;;;;;;2.41;64.44;99521.91;126305;1099;104165;-83
2021/12/02 02:54:43;;;;;;;19.60;8.57;;;;;;;2.43;64.37;99525.48;126336;1099;104251;-83
2021/12/02 02:57:17;;;;;;;22.10;9.37;;;;;;;2.43;64.46;99535.84;126328;1099;104136;-83
2021/12/02 03:00:03;;;;;;;23.97;8.97;;;;;;;2.41;63.99;99537.44;126352;1099;104143;-83
2021/12/02 03:02:41;;;;;;;20.37;9.90;;;;;;;2.39;64.61;99523.54;126217;1099;104162;-82
2021/12/02 03:05:22;;;;;;;26.50;11.37;;;;;;;2.37;64.41;99524.25;126300;1099;104158;-82
2021/12/02 03:07:57;;;;;;;24.03;9.93;;;;;;;2.35;64.51;99537.13;126286;1099;104249;-84
2021/12/02 03:10:41;;;;;;;25.53;10.07;;;;;;;2.30;64.27;99544.64;126362;1099;104235;-84
2021/12/02 03:13:18;;;;;;;22.98;9.33;;;;;;;2.26;64.07;99544.39;126285;1099;104236;-84
2021/12/02 03:18:39;;;;;;;20.63;9.10;;;;;;;2.11;64.62;99532.42;126375;1099;104280;-83
2021/12/02 03:21:21;;;;;;;20.70;9.90;;;;;;;2.11;64.66;99532.42;126314;1098;104239;-81
2021/12/02 03:23:55;;;;;;;20.93;9.03;;;;;;;2.15;64.90;99541.23;126321;1099;104165;-82
2021/12/02 03:26:27;;;;;;;20.40;9.30;;;;;;;2.18;64.79;99538.80;126351;1099;104172;-83
2021/12/02 03:28:58;;;;;;;18.13;8.50;;;;;;;2.24;64.63;99527.91;126290;1099;104309;-83
2021/12/02 03:31:30;;;;;;;20.30;8.73;;;;;;;2.25;64.25;99533.16;126343;1099;104274;-84
2021/12/02 03:34:04;;;;;;;18.87;9.17;;;;;;;2.28;64.82;99535.91;125217;1099;104149;-82
2021/12/02 03:36:35;;;;;;;20.70;9.00;;;;;;;2.31;64.88;99540.38;125309;1099;104491;-82
2021/12/02 03:39:08;;;;;;;20.77;9.00;;;;;;;2.30;64.88;99546.35;125332;1099;104610;-83
2021/12/02 03:41:41;;;;;;;20.35;9.40;;;;;;;2.30;64.79;99555.00;125241;1102;104284;-83
2021/12/02 03:44:13;;;;;;;21.63;9.73;;;;;;;2.32;64.98;99562.84;125250;1099;102013;-82
2021/12/02 03:46:44;;;;;;;21.57;9.43;;;;;;;2.32;64.65;99553.41;126173;1099;104273;-82
2021/12/02 03:49:15;;;;;;;20.33;8.93;;;;;;;2.34;65.00;99553.48;125257;1102;105171;-82
2021/12/02 03:51:47;;;;;;;21.37;9.87;;;;;;;2.36;64.83;99550.98;125330;1101;104153;-82
2021/12/02 03:54:18;;;;;;;23.83;10.13;;;;;;;2.37;64.96;99544.97;125258;1102;104329;-82
2021/12/02 03:56:49;;;;;;;20.83;9.90;;;;;;;2.40;65.18;99540.86;125354;1102;104784;-83
2021/12/02 03:59:21;;;;;;;23.33;9.00;;;;;;;2.42;65.56;99547.00;125242;1102;104159;-83
2021/12/02 04:01:53;;;;;;;21.30;9.17;;;;;;;2.49;65.07;99551.70;125342;1102;104296;-83
2021/12/02 04:04:24;;;;;;;20.70;9.07;;;;;;;2.56;65.43;99542.55;125224;1102;104173;-83
2021/12/02 04:06:56;;;;;;;24.47;9.73;;;;;;;2.62;65.24;99540.28;125274;1102;104255;-82
2021/12/02 04:09:34;;;;;;;20.63;9.33;;;;;;;2.66;65.77;99543.91;125308;1102;104408;-83
2021/12/02 04:12:10;;;;;;;20.90;10.00;;;;;;;2.70;64.90;99540.67;125284;1099;104787;-82
2021/12/02 04:14:47;;;;;;;20.70;9.50;;;;;;;2.74;65.16;99537.41;125289;1099;104242;-83
2021/12/02 04:17:28;;;;;;;22.87;9.83;;;;;;;2.79;65.61;99545.42;125150;1102;104176;-82
2021/12/02 04:20:00;;;;;;;20.65;10.00;;;;;;;2.80;65.74;99531.66;125307;1099;104360;-83
2021/12/02 04:22:31;;;;;;;19.73;9.57;;;;;;;2.83;65.86;99535.30;126135;1099;104191;-83
2021/12/02 04:25:02;;;;;;;22.83;9.43;;;;;;;2.87;65.73;99532.05;126080;1099;104843;-83
2021/12/02 04:27:34;;;;;;;20.10;9.33;;;;;;;2.94;65.62;99537.55;126178;1099;104281;-83
2021/12/02 04:30:08;;;;;;;23.90;10.23;;;;;;;2.98;65.17;99540.38;126188;1099;104191;-83
2021/12/02 04:32:40;;;;;;;19.20;9.27;;;;;;;3.02;65.86;99531.05;126285;1099;104143;-83
2021/12/02 04:35:13;;;;;;;20.47;9.30;;;;;;;3.04;65.16;99521.66;126339;1099;104342;-83
2021/12/02 04:37:45;;;;;;;24.83;11.03;;;;;;;3.07;65.76;99524.41;126229;1099;104337;-83
2021/12/02 04:40:18;;;;;;;23.67;10.33;;;;;;;3.10;66.07;99527.16;126176;1099;104149;-83
2021/12/02 04:42:50;;;;;;;26.97;10.20;;;;;;;3.07;65.97;99529.59;126220;1099;104149;-83
2021/12/02 04:45:21;;;;;;;24.67;10.53;;;;;;;3.01;65.06;99530.16;126163;1099;104252;-82
2021/12/02 04:47:54;;;;;;;26.63;10.23;;;;;;;3.02;65.54;99537.14;126051;1099;104178;-82
2021/12/02 04:50:26;;;;;;;24.07;11.50;;;;;;;3.01;65.60;99537.06;125976;1099;104146;-82
2021/12/02 04:52:57;;;;;;;26.30;11.97;;;;;;;3.01;65.95;99527.58;126003;1099;104175;-82
2021/12/02 04:55:28;;;;;;;21.50;11.17;;;;;;;3.04;65.93;99537.22;126018;1099;102015;-82
2021/12/02 04:58:00;;;;;;;23.80;10.87;;;;;;;3.06;65.79;99538.17;126154;1099;104252;-82
2021/12/02 05:00:31;;;;;;;27.63;11.30;;;;;;;3.06;65.99;99525.21;126024;1099;104198;-82
2021/12/02 05:03:05;;;;;;;23.33;10.83;;;;;;;3.10;65.65;99542.70;126294;1099;104271;-83
2021/12/02 05:05:35;;;;;;;;;;;;;;;3.13;66.29;99537.67;126358;1099;104248;-81
2021/12/02 05:08:07;;;;;;;23.70;10.83;;;;;;;3.15;65.76;99543.81;126244;1099;105647;-83
2021/12/02 05:10:38;;;;;;;29.40;10.83;;;;;;;3.18;66.18;99528.41;126305;1099;104262;-84
2021/12/02 05:13:11;;;;;;;28.77;10.83;;;;;;;3.25;65.50;99537.38;126348;1099;104229;-83
2021/12/02 05:15:42;;;;;;;26.23;11.20;;;;;;;3.27;65.58;99542.64;126122;1097;104264;-83
2021/12/02 05:18:16;;;;;;;26.47;11.43;;;;;;;3.30;66.25;99546.26;125923;1099;104188;-83
2021/12/02 05:20:47;;;;;;;;;;;;;;;3.31;65.55;99535.08;126032;1099;104178;-83
2021/12/02 05:23:19;;;;;;;24.00;10.93;;;;;;;3.33;66.22;99542.94;126131;1099;104248;-83
2021/12/02 05:25:50;;;;;;;26.97;10.90;;;;;;;3.33;65.60;99540.34;126005;1099;104206;-83
2021/12/02 05:28:22;;;;;;;24.73;11.50;;;;;;;3.33;66.01;99542.94;125985;1099;102125;-82
2021/12/02 05:30:53;;;;;;;28.77;11.57;;;;;;;3.32;66.01;99533.38;126286;1099;104168;-83
2021/12/02 05:33:25;;;;;;;28.30;12.03;;;;;;;3.33;65.85;99529.98;126319;1099;104150;-83
2021/12/02 05:35:58;;;;;;;26.97;11.37;;;;;;;3.36;65.82;99528.41;126181;1099;104146;-82
2021/12/02 05:38:32;;;;;;;26.33;11.37;;;;;;;3.45;65.74;99529.70;126172;1099;104297;-82
2021/12/02 05:41:05;;;;;;;26.33;11.90;;;;;;;3.51;66.80;99541.25;126165;1099;104188;-84
2021/12/02 05:43:37;;;;;;;29.20;12.03;;;;;;;3.55;66.47;99543.19;126235;1099;104261;-82
2021/12/02 05:46:08;;;;;;;27.83;12.83;;;;;;;3.56;65.68;99538.88;125966;1099;104153;-83
2021/12/02 05:48:40;;;;;;;26.50;12.40;;;;;;;3.56;66.05;99533.69;126045;1099;104312;-82
2021/12/02 05:51:11;;;;;;;25.03;11.97;;;;;;;3.55;66.04;99527.63;126052;1099;104264;-83
2021/12/02 05:53:43;;;;;;;28.60;12.80;;;;;;;3.56;65.69;99523.31;126000;1099;104326;-83
2021/12/02 05:56:14;;;;;;;24.20;12.50;;;;;;;3.58;65.67;99529.45;125930;1099;104184;-82
2021/12/02 05:58:46;;;;;;;28.60;12.40;;;;;;;3.59;65.97;99526.05;126083;1099;104204;-82
2021/12/02 06:01:17;;;;;;;25.73;11.60;;;;;;;3.62;66.39;99541.77;125892;1099;104204;-82
2021/12/02 06:03:48;;;;;;;28.97;13.60;;;;;;;3.65;66.68;99543.63;125962;1099;104214;-83
2021/12/02 06:06:23;;;;;;;24.20;12.43;;;;;;;3.70;66.50;99545.61;125793;1099;104278;-83
2021/12/02 06:08:55;;;;;;;25.33;11.03;;;;;;;3.78;66.42;99545.97;125880;1099;104278;-82
2021/12/02 06:11:26;;;;;;;24.90;10.95;;;;;;;3.89;66.92;99525.72;126044;1099;104204;-82
2021/12/02 06:13:58;;;;;;;22.67;9.53;;;;;;;3.99;66.88;99512.36;125938;1099;104204;-83
2021/12/02 06:16:33;;;;;;;23.10;10.35;;;;;;;4.09;66.79;99505.87;126059;1099;104181;-83
2021/12/02 06:19:06;;;;;;;20.60;10.23;;;;;;;4.19;67.33;99522.75;126026;1099;104252;-83
2021/12/02 06:21:38;;;;;;;24.87;10.77;;;;;;;4.28;66.83;99518.84;125981;1099;104175;-82
2021/12/02 06:24:14;;;;;;;29.10;11.50;;;;;;;4.37;66.98;99510.59;125862;1099;104188;-82
2021/12/02 06:26:50;;;;;;;22.60;10.80;;;;;;;4.53;67.18;99516.47;125689;1099;102883;-82
2021/12/02 06:29:25;;;;;;;22.80;10.00;;;;;;;4.68;67.08;99511.95;125054;1099;104187;-80
2021/12/02 06:31:57;;;;;;;22.27;10.47;;;;;;;4.81;67.08;99528.95;125614;1099;104155;-83
2021/12/02 06:34:30;;;;;;;23.20;10.33;;;;;;;4.89;66.64;99532.75;125709;1099;104242;-82
2021/12/02 06:37:16;;;;;;;21.27;9.77;;;;;;;4.97;67.29;99530.48;125775;1099;104179;-81
2021/12/02 06:39:49;;;;;;;24.97;11.10;;;;;;;4.99;67.06;99539.27;125141;1102;104296;-81
2021/12/02 06:42:22;;;;;;;21.83;10.17;;;;;;;5.00;67.03;99539.33;125122;1099;104181;-82
2021/12/02 06:44:54;;;;;;;24.03;11.30;;;;;;;5.04;67.08;99541.21;125166;1099;104201;-80
2021/12/02 06:47:31;;;;;;;24.73;11.10;;;;;;;5.04;66.66;99527.33;125287;1102;104235;-82
2021/12/02 06:50:05;;;;;;;25.10;10.77;;;;;;;5.02;66.72;99529.87;125869;1099;104149;-80
2021/12/02 06:52:37;;;;;;;23.02;10.25;;;;;;;5.04;67.22;99528.21;125216;1099;104252;-81
2021/12/02 06:55:11;;;;;;;27.80;11.00;;;;;;;5.10;67.33;99527.59;125173;1100;104185;-80
2021/12/02 06:57:45;;;;;;;22.33;10.90;;;;;;;5.16;66.94;99537.38;125504;1099;104347;-80
2021/12/02 07:00:19;;;;;;;22.87;10.53;;;;;;;5.20;66.83;99540.17;125133;1102;104172;-80
2021/12/02 07:02:55;;;;;;;23.53;11.10;;;;;;;5.22;66.83;99522.02;125079;1099;104367;-81
2021/12/02 07:05:30;;;;;;;22.77;10.93;;;;;;;5.22;67.08;99527.23;125256;1099;104181;-82
2021/12/02 07:08:02;;;;;;;21.37;9.97;;;;;;;5.22;66.93;99525.50;125421;1099;104137;-81
2021/12/02 07:10:34;;;;;;;21.27;10.30;;;;;;;5.26;66.98;99523.03;125685;1099;104296;-82
2021/12/02 07:13:06;;;;;;;21.47;9.83;;;;;;;5.34;67.00;99524.22;125773;1099;102898;-80
2021/12/02 07:15:43;;;;;;;;;;;;;;;5.43;67.13;99519.39;125946;1098;104235;-84
2021/12/02 07:18:20;;;;;;;18.53;8.43;;;;;;;5.48;67.00;99517.86;125864;1099;104214;-81
2021/12/02 07:20:56;;;;;;;21.40;10.27;;;;;;;5.52;66.75;99514.56;125738;1099;104332;-83
2021/12/02 07:23:31;;;;;;;23.90;11.17;;;;;;;5.57;66.66;99509.55;125996;1099;104242;-81
2021/12/02 07:26:05;;;;;;;20.67;9.90;;;;;;;5.61;67.04;99501.05;125714;1099;104236;-80
2021/12/02 07:28:40;;;;;;;22.00;10.53;;;;;;;5.68;66.81;99512.57;125661;1099;104261;-82
2021/12/02 07:31:17;;;;;;;19.97;9.63;;;;;;;5.72;67.06;99517.95;126071;1099;104213;-84
2021/12/02 07:33:54;;;;;;;20.93;9.03;;;;;;;5.78;66.92;99521.62;125901;1099;104302;-80
2021/12/02 07:36:33;;;;;;;19.23;9.00;;;;;;;5.88;66.65;99519.44;125954;1099;104258;-80
2021/12/02 07:39:09;;;;;;;22.00;9.97;;;;;;;6.01;66.67;99523.42;125797;1099;104411;-82
2021/12/02 07:41:44;;;;;;;24.63;10.77;;;;;;;6.17;66.90;99505.77;125869;1099;102906;-80
2021/12/02 07:44:22;;;;;;;23.03;9.93;;;;;;;6.32;66.82;99495.05;125864;1099;104171;-81
2021/12/02 07:47:16;;;;;;;20.77;9.83;;;;;;;6.37;66.21;99489.15;125895;1099;104203;-79
2021/12/02 07:49:50;;;;;;;20.73;9.63;;;;;;;6.43;66.21;99491.10;125820;1099;104172;-79
2021/12/02 07:52:30;;;;;;;20.23;9.77;;;;;;;6.51;66.40;99505.28;125817;1099;104216;-81
2021/12/02 07:55:08;;;;;;;21.30;10.00;;;;;;;6.61;66.24;99512.62;125647;1099;104245;-81
2021/12/02 07:57:53;;;;;;;23.60;10.95;;;;;;;6.71;66.24;99518.16;125748;1099;104358;-80
2021/12/02 08:00:29;;;;;;;21.67;9.87;;;;;;;6.86;65.91;99512.57;125827;1099;118511;-79
2021/12/02 08:03:01;;;;;;;20.23;9.23;;;;;;;7.01;66.22;99516.62;125753;1098;105088;-79
2021/12/02 08:05:39;;;;;;;19.53;9.03;;;;;;;7.27;66.08;99520.94;125950;1099;104147;-80
2021/12/02 08:11:07;;;;;;;21.17;10.37;;;;;;;7.62;65.73;99510.73;125996;1099;104176;-81
2021/12/02 08:13:43;;;;;;;20.83;9.90;;;;;;;7.75;65.54;99515.52;125827;1098;104210;-80
2021/12/02 08:16:16;;;;;;;20.03;9.90;;;;;;;7.89;65.53;99506.37;125874;1099;105031;-79
2021/12/02 08:18:51;;;;;;;22.82;9.88;;;;;;;8.00;64.68;99492.77;125982;1099;104243;-80
2021/12/02 08:21:33;;;;;;;21.93;10.37;;;;;;;8.10;64.67;99500.02;125989;1099;102498;-79
2021/12/02 08:24:26;;;;;;;22.20;9.90;;;;;;;8.26;64.55;99496.15;125891;1099;104185;-79
2021/12/02 08:27:01;;;;;;;;;;;;;;;8.35;63.46;99503.34;125793;1099;104159;-80
2021/12/02 08:29:38;;;;;;;19.70;9.43;;;;;;;8.45;64.88;99494.97;125105;1099;102837;-81
2021/12/02 08:32:17;;;;;;;;;;;;;;;8.53;63.76;99509.12;125904;1099;104224;-80
2021/12/02 08:34:54;;;;;;;23.13;9.93;;;;;;;8.53;64.06;99511.75;125950;1099;104357;-82
2021/12/02 08:37:44;;;;;;;19.63;9.83;;;;;;;8.56;63.44;99511.83;126112;1099;104245;-79
2021/12/02 08:40:30;;;;;;;19.97;9.60;;;;;;;8.60;63.75;99507.56;126041;1099;104371;-79
2021/12/02 08:43:06;;;;;;;20.70;9.67;;;;;;;8.56;63.12;99503.11;126135;1099;104204;-79
2021/12/02 08:45:40;;;;;;;20.57;9.47;;;;;;;8.48;63.01;99500.28;126010;1099;104223;-80
2021/12/02 08:48:26;;;;;;;;;;;;;;;;;;;;;
2021/12/02 08:51:09;;;;;;;19.10;9.60;;;;;;;8.35;62.49;99492.89;126054;1099;104177;-80
2021/12/02 08:53:44;;;;;;;20.57;9.37;;;;;;;8.22;62.60;99502.11;125996;1098;102299;-80
2021/12/02 08:56:22;;;;;;;20.27;9.87;;;;;;;8.16;62.93;99507.16;125715;1099;104688;-80
2021/12/02 08:58:55;;;;;;;20.40;9.23;;;;;;;8.07;62.63;99492.99;125923;1099;104190;-77
2021/12/02 09:01:47;;;;;;;18.73;8.97;;;;;;;7.99;62.22;99480.53;125747;1099;104172;-80
2021/12/02 09:04:27;;;;;;;19.13;8.97;;;;;;;7.95;62.60;99476.95;125864;1099;102327;-78
2021/12/02 09:07:04;;;;;;;17.73;8.53;;;;;;;7.95;61.95;99478.66;125857;1099;104246;-80
2021/12/02 09:09:45;;;;;;;21.00;9.30;;;;;;;7.92;62.63;99480.34;125724;1099;102833;-79
2021/12/02 09:12:24;;;;;;;21.43;9.40;;;;;;;8.02;63.06;99476.27;125869;1099;104284;-78
2021/12/02 09:14:57;;;;;;;20.13;9.40;;;;;;;8.15;63.17;99471.41;125924;1099;104236;-78
2021/12/02 09:17:44;;;;;;;19.87;9.13;;;;;;;8.13;62.28;99478.33;126041;1099;104294;-80
2021/12/02 09:20:34;;;;;;;20.50;9.20;;;;;;;8.08;62.02;99472.97;126008;1099;104146;-81
2021/12/02 09:23:17;;;;;;;21.20;9.27;;;;;;;8.15;61.83;99466.18;125936;1099;104429;-79
2021/12/02 09:25:55;;;;;;;21.37;10.10;;;;;;;8.21;61.75;99472.48;125965;1098;104265;-80
2021/12/02 09:28:32;;;;;;;19.97;9.10;;;;;;;8.26;61.98;99463.05;125972;1099;104332;-82
2021/12/02 09:31:05;;;;;;;20.07;9.47;;;;;;;8.36;62.55;99463.30;125982;1099;104002;-81
2021/12/02 09:34:08;;;;;;;20.60;9.37;;;;;;;8.42;62.23;99450.41;125229;1099;104296;-81
2021/12/02 09:36:50;;;;;;;21.07;9.77;;;;;;;8.46;61.98;99436.59;125749;1099;104236;-81
2021/12/02 09:39:31;;;;;;;22.60;9.93;;;;;;;8.54;62.09;99455.09;126009;1099;104332;-80
2021/12/02 09:42:05;;;;;;;21.97;9.83;;;;;;;8.56;61.89;99450.81;125929;1099;104147;-80
2021/12/02 09:45:34;;;;;;;;;;;;;;;;;;;;;
2021/12/02 09:48:07;;;;;;;20.27;9.47;;;;;;;8.51;61.74;99462.86;125888;1099;104365;-80
2021/12/02 09:51:03;;;;;;;22.62;9.45;;;;;;;8.54;61.80;99456.00;125814;1098;104192;-80
2021/12/02 09:53:53;;;;;;;20.33;8.97;;;;;;;8.52;61.52;99434.14;125865;1099;104162;-81
2021/12/02 09:56:33;;;;;;;21.37;9.23;;;;;;;8.64;61.37;99452.77;125732;1099;104192;-80
2021/12/02 09:59:12;;;;;;;21.40;9.67;;;;;;;8.62;61.38;99433.55;125830;1099;102773;-80
2021/12/02 10:02:01;;;;;;;19.60;9.17;;;;;;;8.58;61.72;99431.69;125820;1099;104179;-81
2021/12/02 10:04:53;;;;;;;20.37;8.80;;;;;;;8.59;61.77;99427.36;125929;1099;104143;-80
2021/12/02 10:08:13;;;;;;;21.37;9.80;;;;;;;8.59;61.48;99436.09;126039;1099;104461;-82
2021/12/02 10:11:14;;;;;;;20.53;8.07;;;;;;;8.67;60.92;99427.56;125937;1099;104194;-82
2021/12/02 10:14:00;;;;;;;19.47;8.57;;;;;;;8.79;60.77;99433.99;126084;1099;104640;-82
2021/12/02 10:16:45;;;;;;;21.17;9.20;;;;;;;8.89;60.75;99424.64;126114;1099;104178;-84
2021/12/02 10:19:47;;;;;;;21.77;9.10;;;;;;;8.98;60.79;99426.61;126137;1099;104195;-83
2021/12/02 10:22:25;;;;;;;16.60;7.93;;;;;;;9.03;61.17;99427.60;126172;1099;104255;-83
2021/12/02 10:25:08;;;;;;;20.13;9.07;;;;;;;9.06;60.33;99421.57;126221;1099;104188;-84
2021/12/02 10:28:09;;;;;;;20.70;9.03;;;;;;;9.09;60.66;99429.50;125998;1099;104143;-79
2021/12/02 10:31:27;;;;;;;;;;;;;;;;;;;;;
2021/12/02 10:34:21;;;;;;;19.40;8.43;;;;;;;9.24;60.57;99424.63;125662;1099;104382;-79
2021/12/02 10:37:24;;;;;;;;;;;;;;;;;;;;;
2021/12/02 10:40:02;;;;;;;17.97;7.83;;;;;;;9.48;59.44;99426.05;125023;1099;104187;-79
2021/12/02 10:42:37;;;;;;;18.13;7.97;;;;;;;9.61;59.65;99419.34;124978;1102;104421;-79
2021/12/02 10:45:23;;;;;;;22.93;10.20;;;;;;;9.72;60.11;99409.98;124788;1102;104297;-81
2021/12/02 10:48:06;;;;;;;20.13;8.37;;;;;;;9.86;59.33;99419.04;124923;1105;104294;-79
2021/12/02 10:50:43;;;;;;;21.90;8.17;;;;;;;9.95;59.28;99417.45;125004;1102;105366;-81
2021/12/02 10:53:17;;;;;;;22.37;8.70;;;;;;;10.02;59.15;99415.00;125481;1102;104191;-82
2021/12/02 10:55:59;;;;;;;20.60;8.27;;;;;;;10.10;59.28;99414.25;125110;1102;104194;-80
2021/12/02 10:58:39;;;;;;;18.87;7.93;;;;;;;10.14;58.77;99408.22;125058;1099;104169;-83
2021/12/02 11:01:43;;;;;;;20.13;8.03;;;;;;;10.17;59.20;99405.66;124998;1102;104155;-81
2021/12/02 11:07:25;;;;;;;16.53;7.57;;;;;;;10.26;58.83;99388.36;125645;1099;104377;-83
2021/12/02 11:10:03;;;;;;;18.00;7.97;;;;;;;10.31;58.58;99383.20;126471;1098;104143;-83
2021/12/02 11:12:38;;;;;;;18.80;7.67;;;;;;;10.39;58.29;99380.77;127322;1097;101966;-83
2021/12/02 11:15:25;;;;;;;13.53;6.67;;;;;;;10.48;57.80;99388.80;127003;1098;107807;-80
2021/12/02 11:18:00;;;;;;;15.33;6.60;;;;;;;10.55;58.48;99371.42;125769;1099;104238;-84
2021/12/02 11:20:37;;;;;;;14.70;5.97;;;;;;;10.60;58.09;99370.66;125686;1099;104280;-83
2021/12/02 11:23:11;;;;;;;12.67;6.20;;;;;;;10.68;58.12;99365.55;125692;1099;104172;-83
2021/12/02 11:25:57;;;;;;;15.37;6.63;;;;;;;10.72;57.74;99354.26;126003;1099;105390;-83
2021/12/02 11:28:31;;;;;;;14.50;5.87;;;;;;;10.76;57.53;99348.19;125169;1099;104200;-82
2021/12/02 11:31:12;;;;;;;16.57;6.40;;;;;;;10.78;57.12;99348.20;125677;1099;104162;-81
2021/12/02 11:33:52;;;;;;;17.23;6.13;;;;;;;10.80;57.67;99354.39;125217;1099;102532;-84
2021/12/02 11:36:25;;;;;;;15.70;5.57;;;;;;;10.81;56.75;99343.02;126412;1102;101796;-81
2021/12/02 11:38:59;;;;;;;13.20;5.62;;;;;;;10.84;57.39;99342.19;125612;1099;102396;-81
2021/12/02 11:41:31;;;;;;;17.62;6.95;;;;;;;10.84;56.86;99344.81;125011;1102;104172;-82
2021/12/02 11:44:04;;;;;;;18.53;6.83;;;;;;;10.81;56.15;99334.27;124919;1099;104332;-83
2021/12/02 11:46:40;;;;;;;16.60;6.50;;;;;;;10.78;56.39;99333.38;125629;1099;104181;-82
2021/12/02 11:49:12;;;;;;;15.13;6.00;;;;;;;10.73;56.00;99332.39;125213;1099;104156;-81
2021/12/02 11:51:46;;;;;;;12.60;5.85;;;;;;;10.71;56.18;99326.25;125717;1099;104287;-84
2021/12/02 11:54:18;;;;;;;16.50;6.10;;;;;;;10.69;56.67;99329.69;125269;1099;104174;-82
2021/12/02 11:56:52;;;;;;;13.60;5.73;;;;;;;10.65;55.81;99325.27;125269;1100;104850;-83
2021/12/02 11:59:29;;;;;;;13.03;5.70;;;;;;;10.62;56.01;99331.34;125922;1099;104213;-81
2021/12/02 12:02:07;;;;;;;14.87;6.30;;;;;;;10.60;55.96;99328.69;125249;1102;105754;-82
2021/12/02 12:04:57;;;;;;;13.57;5.93;;;;;;;10.61;56.03;99324.31;125546;1099;104172;-83
2021/12/02 12:07:50;;;;;;;14.73;5.90;;;;;;;10.61;55.94;99334.81;125799;1099;104313;-82
2021/12/02 12:10:46;;;;;;;18.47;6.00;;;;;;;10.61;55.91;99334.81;125117;1099;104342;-81
2021/12/02 12:13:25;;;;;;;17.33;6.20;;;;;;;10.61;55.77;99334.81;125833;1099;102590;-78
2021/12/02 12:16:00;;;;;;;10.50;5.20;;;;;;;10.60;55.61;99333.94;125706;1099;104152;-78